createdAt,value
2018-02-05T00:00:03.051Z,1.2
2018-02-05T00:00:06.734Z,1.18
2018-02-05T00:00:10.627Z,1.21
2018-02-05T00:00:14.738Z,1.26
2018-02-05T00:00:18.957Z,1.2
2018-02-05T00:00:22.966Z,1.2
2018-02-05T00:00:26.755Z,1.21
2018-02-05T00:00:30.547Z,1.18
2018-02-05T00:00:34.549Z,1.26
2018-02-05T00:00:38.440Z,1.26
2018-02-05T00:00:42.442Z,1.2
2018-02-05T00:00:46.549Z,1.2
2018-02-05T00:00:50.333Z,1.18
2018-02-05T00:00:54.329Z,1.24
2018-02-05T00:00:58.332Z,1.18
2018-02-05T00:01:02.670Z,1.2
2018-02-05T00:01:06.355Z,1.2
2018-02-05T00:01:10.458Z,1.25
2018-02-05T00:01:14.671Z,1.24
2018-02-05T00:01:18.570Z,1.21
2018-02-05T00:01:22.359Z,1.26
2018-02-05T00:01:26.042Z,1.24
2018-02-05T00:01:30.152Z,1.28
2018-02-05T00:01:34.156Z,1.28
2018-02-05T00:01:38.159Z,1.25
2018-02-05T00:01:41.947Z,1.26
2018-02-05T00:01:45.840Z,1.18
2018-02-05T00:01:49.731Z,1.18
2018-02-05T00:01:53.850Z,1.26
2018-02-05T00:01:57.536Z,1.25
2018-02-05T00:02:01.809Z,1.29
2018-02-05T00:02:05.704Z,1.25
2018-02-05T00:02:09.492Z,1.21
2018-02-05T00:02:13.384Z,1.31
2018-02-05T00:02:17.484Z,1.2
2018-02-05T00:02:21.642Z,1.2
2018-02-05T00:02:25.853Z,1.34
2018-02-05T00:02:29.537Z,1.28
2018-02-05T00:02:33.536Z,1.31
2018-02-05T00:02:37.539Z,1.32
2018-02-05T00:02:41.437Z,1.32
2018-02-05T00:02:45.329Z,1.29
2018-02-05T00:02:49.014Z,1.34
2018-02-05T00:02:52.903Z,1.29
2018-02-05T00:02:56.794Z,1.34
2018-02-05T00:03:00.587Z,1.36
2018-02-05T00:03:04.890Z,1.35
2018-02-05T00:03:08.997Z,1.34
2018-02-05T00:03:13.100Z,1.36
2018-02-05T00:03:17.201Z,1.32
2018-02-05T00:03:21.202Z,1.35
2018-02-05T00:03:24.987Z,1.29
2018-02-05T00:03:28.776Z,1.29
2018-02-05T00:03:32.560Z,1.36
2018-02-05T00:03:36.561Z,1.35
2018-02-05T00:03:40.558Z,1.31
2018-02-05T00:03:44.344Z,1.31
2018-02-05T00:03:48.135Z,1.31
2018-02-05T00:03:52.232Z,1.32
2018-02-05T00:03:56.129Z,1.32
2018-02-05T00:04:00.130Z,1.34
2018-02-05T00:04:04.129Z,1.31
2018-02-05T00:04:08.028Z,1.36
2018-02-05T00:04:11.931Z,1.32
2018-02-05T00:04:16.032Z,1.35
2018-02-05T00:04:19.818Z,1.29
2018-02-05T00:04:23.819Z,1.28
2018-02-05T00:04:27.604Z,1.36
2018-02-05T00:04:31.493Z,1.34
2018-02-05T00:04:35.488Z,1.31
2018-02-05T00:04:39.492Z,1.34
2018-02-05T00:04:43.490Z,1.34
2018-02-05T00:04:47.385Z,1.39
2018-02-05T00:04:51.279Z,1.36
2018-02-05T00:04:55.392Z,1.32
2018-02-05T00:04:59.174Z,1.32
2018-02-05T00:05:03.581Z,1.43
2018-02-05T00:05:07.591Z,1.43
2018-02-05T00:05:11.377Z,1.43
2018-02-05T00:05:15.590Z,1.46
2018-02-05T00:05:19.377Z,1.44
2018-02-05T00:05:23.272Z,1.38
2018-02-05T00:05:27.273Z,1.34
2018-02-05T00:05:31.162Z,1.47
2018-02-05T00:05:35.168Z,1.43
2018-02-05T00:05:39.062Z,1.38
2018-02-05T00:05:43.162Z,1.46
2018-02-05T00:05:47.157Z,1.42
2018-02-05T00:05:50.952Z,1.35
2018-02-05T00:05:54.740Z,1.44
2018-02-05T00:05:58.630Z,1.35
2018-02-05T00:06:02.576Z,1.34
2018-02-05T00:06:06.369Z,1.36
2018-02-05T00:06:10.613Z,1.44
2018-02-05T00:06:14.780Z,1.36
2018-02-05T00:06:18.682Z,1.35
2018-02-05T00:06:22.574Z,1.35
2018-02-05T00:06:26.781Z,1.46
2018-02-05T00:06:30.674Z,1.36
2018-02-05T00:06:34.567Z,1.43
2018-02-05T00:06:38.668Z,1.44
2018-02-05T00:06:42.774Z,1.39
2018-02-05T00:06:46.670Z,1.38
2018-02-05T00:06:50.669Z,1.38
2018-02-05T00:06:54.731Z,1.46
2018-02-05T00:06:58.731Z,1.43
2018-02-05T00:07:02.889Z,1.46
2018-02-05T00:07:06.780Z,1.39
2018-02-05T00:07:10.680Z,1.43
2018-02-05T00:07:14.787Z,1.46
2018-02-05T00:07:18.678Z,1.42
2018-02-05T00:07:22.513Z,1.39
2018-02-05T00:07:26.302Z,1.39
2018-02-05T00:07:30.194Z,1.39
2018-02-05T00:07:34.129Z,1.36
2018-02-05T00:07:37.817Z,1.36
2018-02-05T00:07:41.718Z,1.32
2018-02-05T00:07:45.709Z,1.38
2018-02-05T00:07:49.599Z,1.35
2018-02-05T00:07:53.494Z,1.43
2018-02-05T00:07:57.712Z,1.39
2018-02-05T00:08:01.862Z,1.36
2018-02-05T00:08:05.759Z,1.42
2018-02-05T00:08:09.761Z,1.35
2018-02-05T00:08:13.654Z,1.44
2018-02-05T00:08:17.546Z,1.39
2018-02-05T00:08:21.445Z,1.42
2018-02-05T00:08:25.230Z,1.38
2018-02-05T00:08:29.336Z,1.32
2018-02-05T00:08:33.446Z,1.42
2018-02-05T00:08:37.236Z,1.43
2018-02-05T00:08:41.129Z,1.36
2018-02-05T00:08:45.024Z,1.47
2018-02-05T00:08:49.019Z,1.39
2018-02-05T00:08:53.159Z,1.39
2018-02-05T00:08:57.058Z,1.43
2018-02-05T00:09:01.058Z,1.39
2018-02-05T00:09:05.057Z,1.38
2018-02-05T00:09:08.841Z,1.42
2018-02-05T00:09:12.838Z,1.42
2018-02-05T00:09:16.940Z,1.43
2018-02-05T00:09:20.832Z,1.39
2018-02-05T00:09:24.731Z,1.39
2018-02-05T00:09:28.626Z,1.46
2018-02-05T00:09:32.623Z,1.43
2018-02-05T00:09:36.522Z,1.46
2018-02-05T00:09:40.515Z,1.35
2018-02-05T00:09:44.300Z,1.36
2018-02-05T00:09:47.982Z,1.36
2018-02-05T00:09:51.977Z,1.44
2018-02-05T00:09:55.974Z,1.39
2018-02-05T00:09:59.974Z,1.35
2018-02-05T00:10:04.027Z,1.39
2018-02-05T00:10:07.927Z,1.36
2018-02-05T00:10:12.035Z,1.43
2018-02-05T00:10:16.144Z,1.36
2018-02-05T00:10:20.249Z,1.36
2018-02-05T00:10:24.458Z,1.35
2018-02-05T00:10:28.462Z,1.44
2018-02-05T00:10:32.349Z,1.39
2018-02-05T00:10:36.348Z,1.36
2018-02-05T00:10:40.352Z,1.35
2018-02-05T00:10:44.454Z,1.46
2018-02-05T00:10:48.350Z,1.35
2018-02-05T00:10:52.135Z,1.39
2018-02-05T00:10:56.237Z,1.42
2018-02-05T00:11:00.238Z,1.43
2018-02-05T00:11:04.449Z,1.44
2018-02-05T00:11:08.236Z,1.38
2018-02-05T00:11:12.239Z,1.36
2018-02-05T00:11:16.231Z,1.36
2018-02-05T00:11:20.230Z,1.43
2018-02-05T00:11:24.231Z,1.36
2018-02-05T00:11:28.350Z,1.38
2018-02-05T00:11:32.349Z,1.49
2018-02-05T00:11:36.243Z,1.46
2018-02-05T00:11:40.024Z,1.36
2018-02-05T00:11:43.917Z,1.39
2018-02-05T00:11:47.808Z,1.38
2018-02-05T00:11:52.012Z,1.38
2018-02-05T00:11:56.014Z,1.35
2018-02-05T00:12:00.025Z,1.38
2018-02-05T00:12:04.173Z,1.39
2018-02-05T00:12:08.273Z,1.46
2018-02-05T00:12:12.217Z,1.36
2018-02-05T00:12:16.328Z,1.39
2018-02-05T00:12:20.538Z,1.39
2018-02-05T00:12:24.341Z,1.43
2018-02-05T00:12:28.588Z,1.36
2018-02-05T00:12:32.879Z,1.5
2018-02-05T00:12:36.778Z,1.44
2018-02-05T00:12:40.781Z,1.43
2018-02-05T00:12:44.776Z,1.35
2018-02-05T00:12:48.563Z,1.34
2018-02-05T00:12:52.350Z,1.43
2018-02-05T00:12:56.556Z,1.38
2018-02-05T00:13:00.771Z,1.46
2018-02-05T00:13:04.757Z,1.38
2018-02-05T00:13:08.757Z,1.46
2018-02-05T00:13:12.756Z,1.36
2018-02-05T00:13:16.658Z,1.44
2018-02-05T00:13:20.659Z,1.42
2018-02-05T00:13:24.340Z,1.38
2018-02-05T00:13:28.030Z,1.36
2018-02-05T00:13:31.712Z,1.42
2018-02-05T00:13:35.711Z,1.46
2018-02-05T00:13:39.781Z,1.39
2018-02-05T00:13:43.780Z,1.46
2018-02-05T00:13:47.788Z,1.43
2018-02-05T00:13:51.693Z,1.36
2018-02-05T00:13:55.793Z,1.43
2018-02-05T00:13:59.910Z,1.46
2018-02-05T00:14:03.911Z,1.43
2018-02-05T00:14:07.918Z,1.44
2018-02-05T00:14:11.809Z,1.43
2018-02-05T00:14:15.707Z,1.35
2018-02-05T00:14:19.494Z,1.42
2018-02-05T00:14:23.386Z,1.43
2018-02-05T00:14:27.168Z,1.39
2018-02-05T00:14:31.267Z,1.42
2018-02-05T00:14:35.168Z,1.44
2018-02-05T00:14:38.951Z,1.43
2018-02-05T00:14:42.954Z,1.43
2018-02-05T00:14:46.744Z,1.43
2018-02-05T00:14:50.744Z,1.36
2018-02-05T00:14:54.748Z,1.38
2018-02-05T00:14:58.753Z,1.43
2018-02-05T00:15:02.658Z,1.36
2018-02-05T00:15:06.551Z,1.44
2018-02-05T00:15:10.340Z,1.39
2018-02-05T00:15:14.453Z,1.35
2018-02-05T00:15:18.243Z,1.43
2018-02-05T00:15:22.242Z,1.44
2018-02-05T00:15:26.133Z,1.39
2018-02-05T00:15:29.815Z,1.43
2018-02-05T00:15:33.607Z,1.35
2018-02-05T00:15:37.403Z,1.43
2018-02-05T00:15:41.296Z,1.42
2018-02-05T00:15:45.503Z,1.35
2018-02-05T00:15:49.604Z,1.44
2018-02-05T00:15:53.287Z,1.43
2018-02-05T00:15:57.281Z,1.38
2018-02-05T00:16:01.456Z,1.43
2018-02-05T00:16:05.347Z,1.32
2018-02-05T00:16:09.143Z,1.44
2018-02-05T00:16:13.142Z,1.44
2018-02-05T00:16:17.141Z,1.39
2018-02-05T00:16:21.138Z,1.35
2018-02-05T00:16:24.922Z,1.35
2018-02-05T00:16:28.812Z,1.42
2018-02-05T00:16:33.029Z,1.36
2018-02-05T00:16:36.939Z,1.44
2018-02-05T00:16:40.727Z,1.44
2018-02-05T00:16:44.519Z,1.42
2018-02-05T00:16:48.470Z,1.35
2018-02-05T00:16:52.470Z,1.42
2018-02-05T00:16:56.471Z,1.44
2018-02-05T00:17:00.374Z,1.35
2018-02-05T00:17:04.264Z,1.32
2018-02-05T00:17:08.052Z,1.38
2018-02-05T00:17:12.154Z,1.38
2018-02-05T00:17:16.047Z,1.43
2018-02-05T00:17:19.835Z,1.36
2018-02-05T00:17:23.729Z,1.43
2018-02-05T00:17:27.830Z,1.36
2018-02-05T00:17:31.727Z,1.46
2018-02-05T00:17:35.622Z,1.35
2018-02-05T00:17:39.520Z,1.36
2018-02-05T00:17:43.310Z,1.46
2018-02-05T00:17:47.524Z,1.46
2018-02-05T00:17:51.316Z,1.38
2018-02-05T00:17:55.209Z,1.39
2018-02-05T00:17:59.202Z,1.42
2018-02-05T00:18:03.097Z,1.43
2018-02-05T00:18:06.773Z,1.43
2018-02-05T00:18:10.666Z,1.42
2018-02-05T00:18:14.668Z,1.38
2018-02-05T00:18:18.674Z,1.43
2018-02-05T00:18:22.676Z,1.34
2018-02-05T00:18:26.574Z,1.43
2018-02-05T00:18:30.567Z,1.46
2018-02-05T00:18:34.464Z,1.36
2018-02-05T00:18:38.354Z,1.43
2018-02-05T00:18:42.261Z,1.35
2018-02-05T00:18:46.261Z,1.44
2018-02-05T00:18:50.257Z,1.32
2018-02-05T00:18:54.358Z,1.44
2018-02-05T00:18:58.362Z,1.38
2018-02-05T00:19:02.459Z,1.44
2018-02-05T00:19:06.346Z,1.39
2018-02-05T00:19:10.550Z,1.34
2018-02-05T00:19:14.545Z,1.46
2018-02-05T00:19:18.433Z,1.36
2018-02-05T00:19:22.429Z,1.5
2018-02-05T00:19:26.219Z,1.46
2018-02-05T00:19:30.327Z,1.38
2018-02-05T00:19:34.325Z,1.44
2018-02-05T00:19:38.124Z,1.44
2018-02-05T00:19:41.908Z,1.43
2018-02-05T00:19:45.698Z,1.32
2018-02-05T00:19:49.749Z,1.43
2018-02-05T00:19:53.753Z,1.36
2018-02-05T00:19:57.645Z,1.44
2018-02-05T00:20:01.640Z,1.43
2018-02-05T00:20:05.537Z,1.36
2018-02-05T00:20:09.741Z,1.49
2018-02-05T00:20:13.741Z,1.46
2018-02-05T00:20:17.423Z,1.34
2018-02-05T00:20:21.435Z,1.44
2018-02-05T00:20:25.221Z,1.38
2018-02-05T00:20:29.266Z,1.38
2018-02-05T00:20:33.161Z,1.46
2018-02-05T00:20:37.055Z,1.39
2018-02-05T00:20:41.065Z,1.35
2018-02-05T00:20:44.953Z,1.43
2018-02-05T00:20:48.745Z,1.46
2018-02-05T00:20:52.640Z,1.39
2018-02-05T00:20:56.531Z,1.36
2018-02-05T00:21:00.528Z,1.42
2018-02-05T00:21:04.536Z,1.36
2018-02-05T00:21:08.433Z,1.34
2018-02-05T00:21:12.113Z,1.39
2018-02-05T00:21:15.898Z,1.47
2018-02-05T00:21:19.787Z,1.38
2018-02-05T00:21:23.900Z,1.35
2018-02-05T00:21:27.795Z,1.38
2018-02-05T00:21:31.801Z,1.42
2018-02-05T00:21:35.813Z,1.42
2018-02-05T00:21:39.602Z,1.42
2018-02-05T00:21:43.600Z,1.47
2018-02-05T00:21:47.599Z,1.42
2018-02-05T00:21:51.390Z,1.42
2018-02-05T00:21:55.391Z,1.42
2018-02-05T00:21:59.073Z,1.43
2018-02-05T00:22:03.072Z,1.46
2018-02-05T00:22:06.979Z,1.44
2018-02-05T00:22:11.085Z,1.43
2018-02-05T00:22:14.880Z,1.39
2018-02-05T00:22:18.778Z,1.49
2018-02-05T00:22:22.723Z,1.5
2018-02-05T00:22:26.402Z,1.43
2018-02-05T00:22:30.511Z,1.42
2018-02-05T00:22:34.402Z,1.39
2018-02-05T00:22:38.406Z,1.43
2018-02-05T00:22:42.298Z,1.52
2018-02-05T00:22:46.456Z,1.43
2018-02-05T00:22:50.453Z,1.5
2018-02-05T00:22:54.452Z,1.43
2018-02-05T00:22:58.244Z,1.49
2018-02-05T00:23:02.613Z,1.52
2018-02-05T00:23:06.612Z,1.56
2018-02-05T00:23:10.298Z,1.6
2018-02-05T00:23:14.292Z,1.5
2018-02-05T00:23:18.295Z,1.39
2018-02-05T00:23:22.300Z,1.56
2018-02-05T00:23:26.089Z,1.53
2018-02-05T00:23:30.098Z,1.56
2018-02-05T00:23:34.103Z,1.6
2018-02-05T00:23:37.890Z,1.43
2018-02-05T00:23:41.690Z,1.56
2018-02-05T00:23:45.680Z,1.52
2018-02-05T00:23:49.467Z,1.53
2018-02-05T00:23:53.356Z,1.43
2018-02-05T00:23:57.254Z,1.53
2018-02-05T00:24:01.261Z,1.6
2018-02-05T00:24:05.372Z,1.5
2018-02-05T00:24:09.272Z,1.46
2018-02-05T00:24:13.166Z,1.56
2018-02-05T00:24:17.121Z,1.53
2018-02-05T00:24:20.907Z,1.49
2018-02-05T00:24:25.116Z,1.56
2018-02-05T00:24:29.006Z,1.5
2018-02-05T00:24:32.899Z,1.52
2018-02-05T00:24:36.793Z,1.6
2018-02-05T00:24:40.787Z,1.6
2018-02-05T00:24:44.586Z,1.53
2018-02-05T00:24:48.593Z,1.57
2018-02-05T00:24:52.593Z,1.57
2018-02-05T00:24:56.702Z,1.56
2018-02-05T00:25:00.697Z,1.47
2018-02-05T00:25:04.892Z,1.5
2018-02-05T00:25:09.003Z,1.52
2018-02-05T00:25:12.903Z,1.52
2018-02-05T00:25:17.118Z,1.53
2018-02-05T00:25:20.907Z,1.52
2018-02-05T00:25:24.909Z,1.57
2018-02-05T00:25:28.799Z,1.54
2018-02-05T00:25:32.906Z,1.53
2018-02-05T00:25:36.694Z,1.53
2018-02-05T00:25:40.478Z,1.53
2018-02-05T00:25:44.268Z,1.56
2018-02-05T00:25:48.259Z,1.5
2018-02-05T00:25:52.052Z,1.49
2018-02-05T00:25:55.832Z,1.61
2018-02-05T00:25:59.840Z,1.53
2018-02-05T00:26:03.739Z,1.53
2018-02-05T00:26:07.733Z,1.57
2018-02-05T00:26:11.632Z,1.49
2018-02-05T00:26:15.739Z,1.52
2018-02-05T00:26:19.424Z,1.53
2018-02-05T00:26:23.576Z,1.53
2018-02-05T00:26:27.473Z,1.54
2018-02-05T00:26:31.260Z,1.52
2018-02-05T00:26:35.052Z,1.49
2018-02-05T00:26:38.945Z,1.53
2018-02-05T00:26:42.846Z,1.46
2018-02-05T00:26:46.845Z,1.56
2018-02-05T00:26:50.947Z,1.53
2018-02-05T00:26:55.154Z,1.46
2018-02-05T00:26:59.041Z,1.49
2018-02-05T00:27:03.147Z,1.52
2018-02-05T00:27:07.154Z,1.46
2018-02-05T00:27:11.160Z,1.53
2018-02-05T00:27:15.053Z,1.47
2018-02-05T00:27:19.150Z,1.56
2018-02-05T00:27:23.048Z,1.52
2018-02-05T00:27:26.941Z,1.52
2018-02-05T00:27:30.733Z,1.52
2018-02-05T00:27:34.631Z,1.53
2018-02-05T00:27:38.417Z,1.57
2018-02-05T00:27:42.101Z,1.57
2018-02-05T00:27:46.102Z,1.46
2018-02-05T00:27:50.104Z,1.57
2018-02-05T00:27:54.105Z,1.46
2018-02-05T00:27:58.307Z,1.52
2018-02-05T00:28:02.663Z,1.56
2018-02-05T00:28:06.453Z,1.46
2018-02-05T00:28:10.242Z,1.5
2018-02-05T00:28:14.130Z,1.5
2018-02-05T00:28:17.918Z,1.5
2018-02-05T00:28:21.600Z,1.56
2018-02-05T00:28:25.499Z,1.57
2018-02-05T00:28:29.288Z,1.49
2018-02-05T00:28:33.178Z,1.53
2018-02-05T00:28:37.077Z,1.49
2018-02-05T00:28:40.867Z,1.49
2018-02-05T00:28:44.972Z,1.5
2018-02-05T00:28:48.867Z,1.6
2018-02-05T00:28:52.860Z,1.49
2018-02-05T00:28:56.658Z,1.54
2018-02-05T00:29:00.550Z,1.49
2018-02-05T00:29:04.545Z,1.54
2018-02-05T00:29:08.655Z,1.52
2018-02-05T00:29:12.751Z,1.61
2018-02-05T00:29:16.748Z,1.52
2018-02-05T00:29:20.637Z,1.57
2018-02-05T00:29:24.634Z,1.61
2018-02-05T00:29:28.625Z,1.6
2018-02-05T00:29:32.621Z,1.49
2018-02-05T00:29:36.615Z,1.57
2018-02-05T00:29:40.401Z,1.46
2018-02-05T00:29:44.411Z,1.49
2018-02-05T00:29:48.197Z,1.57
2018-02-05T00:29:52.195Z,1.5
2018-02-05T00:29:56.307Z,1.52
2018-02-05T00:30:00.523Z,1.52
2018-02-05T00:30:04.522Z,1.5
2018-02-05T00:30:08.522Z,1.52
2018-02-05T00:30:12.407Z,1.47
2018-02-05T00:30:16.413Z,1.61
2018-02-05T00:30:20.415Z,1.56
2018-02-05T00:30:24.424Z,1.54
2018-02-05T00:30:28.429Z,1.56
2018-02-05T00:30:32.328Z,1.54
2018-02-05T00:30:36.542Z,1.53
2018-02-05T00:30:40.538Z,1.61
2018-02-05T00:30:44.326Z,1.54
2018-02-05T00:30:48.122Z,1.47
2018-02-05T00:30:52.126Z,1.52
2018-02-05T00:30:56.235Z,1.56
2018-02-05T00:31:00.373Z,1.6
2018-02-05T00:31:04.526Z,1.53
2018-02-05T00:31:08.533Z,1.57
2018-02-05T00:31:12.318Z,1.5
2018-02-05T00:31:16.318Z,1.57
2018-02-05T00:31:20.207Z,1.52
2018-02-05T00:31:24.102Z,1.49
2018-02-05T00:31:28.101Z,1.6
2018-02-05T00:31:31.996Z,1.63
2018-02-05T00:31:35.994Z,1.54
2018-02-05T00:31:39.781Z,1.54
2018-02-05T00:31:43.672Z,1.53
2018-02-05T00:31:47.560Z,1.53
2018-02-05T00:31:51.242Z,1.56
2018-02-05T00:31:55.242Z,1.57
2018-02-05T00:31:59.356Z,1.54
2018-02-05T00:32:03.618Z,1.5
2018-02-05T00:32:07.512Z,1.54
2018-02-05T00:32:11.416Z,1.56
2018-02-05T00:32:15.519Z,1.56
2018-02-05T00:32:19.522Z,1.56
2018-02-05T00:32:23.307Z,1.52
2018-02-05T00:32:26.993Z,1.5
2018-02-05T00:32:30.782Z,1.57
2018-02-05T00:32:34.677Z,1.5
2018-02-05T00:32:38.564Z,1.6
2018-02-05T00:32:42.250Z,1.53
2018-02-05T00:32:46.139Z,1.52
2018-02-05T00:32:50.038Z,1.56
2018-02-05T00:32:54.042Z,1.53
2018-02-05T00:32:57.937Z,1.54
2018-02-05T00:33:02.086Z,1.53
2018-02-05T00:33:05.871Z,1.53
2018-02-05T00:33:09.870Z,1.56
2018-02-05T00:33:13.977Z,1.54
2018-02-05T00:33:17.769Z,1.61
2018-02-05T00:33:21.562Z,1.56
2018-02-05T00:33:25.342Z,1.6
2018-02-05T00:33:29.340Z,1.57
2018-02-05T00:33:33.133Z,1.54
2018-02-05T00:33:37.141Z,1.6
2018-02-05T00:33:41.139Z,1.57
2018-02-05T00:33:44.935Z,1.54
2018-02-05T00:33:48.944Z,1.56
2018-02-05T00:33:52.626Z,1.54
2018-02-05T00:33:56.519Z,1.54
2018-02-05T00:34:00.568Z,1.52
2018-02-05T00:34:04.469Z,1.57
2018-02-05T00:34:08.358Z,1.56
2018-02-05T00:34:12.162Z,1.56
2018-02-05T00:34:16.161Z,1.54
2018-02-05T00:34:20.157Z,1.53
2018-02-05T00:34:24.055Z,1.54
2018-02-05T00:34:28.054Z,1.56
2018-02-05T00:34:31.954Z,1.53
2018-02-05T00:34:35.851Z,1.5
2018-02-05T00:34:39.642Z,1.61
2018-02-05T00:34:43.534Z,1.53
2018-02-05T00:34:47.213Z,1.49
2018-02-05T00:34:51.214Z,1.56
2018-02-05T00:34:55.212Z,1.54
2018-02-05T00:34:59.316Z,1.56
2018-02-05T00:35:03.611Z,1.56
2018-02-05T00:35:07.713Z,1.54
2018-02-05T00:35:11.507Z,1.5
2018-02-05T00:35:15.302Z,1.52
2018-02-05T00:35:19.084Z,1.61
2018-02-05T00:35:23.092Z,1.52
2018-02-05T00:35:27.096Z,1.61
2018-02-05T00:35:31.094Z,1.56
2018-02-05T00:35:34.886Z,1.53
2018-02-05T00:35:38.786Z,1.53
2018-02-05T00:35:42.893Z,1.53
2018-02-05T00:35:46.951Z,1.53
2018-02-05T00:35:50.846Z,1.56
2018-02-05T00:35:54.743Z,1.6
2018-02-05T00:35:58.640Z,1.57
2018-02-05T00:36:02.587Z,1.52
2018-02-05T00:36:06.379Z,1.6
2018-02-05T00:36:10.480Z,1.54
2018-02-05T00:36:14.166Z,1.57
2018-02-05T00:36:17.954Z,1.61
2018-02-05T00:36:22.173Z,1.56
2018-02-05T00:36:26.277Z,1.56
2018-02-05T00:36:30.275Z,1.61
2018-02-05T00:36:34.166Z,1.54
2018-02-05T00:36:38.059Z,1.52
2018-02-05T00:36:41.949Z,1.6
2018-02-05T00:36:45.744Z,1.53
2018-02-05T00:36:49.741Z,1.6
2018-02-05T00:36:53.526Z,1.57
2018-02-05T00:36:57.417Z,1.54
2018-02-05T00:37:01.520Z,1.52
2018-02-05T00:37:05.614Z,1.6
2018-02-05T00:37:09.511Z,1.54
2018-02-05T00:37:13.512Z,1.56
2018-02-05T00:37:17.617Z,1.63
2018-02-05T00:37:21.516Z,1.6
2018-02-05T00:37:25.408Z,1.56
2018-02-05T00:37:29.408Z,1.52
2018-02-05T00:37:33.521Z,1.54
2018-02-05T00:37:37.523Z,1.53
2018-02-05T00:37:41.626Z,1.61
2018-02-05T00:37:45.520Z,1.56
2018-02-05T00:37:49.309Z,1.53
2018-02-05T00:37:53.098Z,1.53
2018-02-05T00:37:57.099Z,1.6
2018-02-05T00:38:01.314Z,1.5
2018-02-05T00:38:05.421Z,1.53
2018-02-05T00:38:09.213Z,1.54
2018-02-05T00:38:13.108Z,1.54
2018-02-05T00:38:16.997Z,1.54
2018-02-05T00:38:20.992Z,1.61
2018-02-05T00:38:24.891Z,1.57
2018-02-05T00:38:28.794Z,1.56
2018-02-05T00:38:32.797Z,1.54
2018-02-05T00:38:36.690Z,1.53
2018-02-05T00:38:40.379Z,1.5
2018-02-05T00:38:44.270Z,1.52
2018-02-05T00:38:48.377Z,1.54
2018-02-05T00:38:52.267Z,1.61
2018-02-05T00:38:56.370Z,1.53
2018-02-05T00:39:00.266Z,1.63
2018-02-05T00:39:04.267Z,1.6
2018-02-05T00:39:07.954Z,1.63
2018-02-05T00:39:11.959Z,1.6
2018-02-05T00:39:16.219Z,1.56
2018-02-05T00:39:20.106Z,1.6
2018-02-05T00:39:24.003Z,1.57
2018-02-05T00:39:27.798Z,1.54
2018-02-05T00:39:31.691Z,1.57
2018-02-05T00:39:35.581Z,1.61
2018-02-05T00:39:39.375Z,1.6
2018-02-05T00:39:43.482Z,1.56
2018-02-05T00:39:47.587Z,1.63
2018-02-05T00:39:51.689Z,1.54
2018-02-05T00:39:55.485Z,1.61
2018-02-05T00:39:59.279Z,1.56
2018-02-05T00:40:03.396Z,1.54
2018-02-05T00:40:07.090Z,1.56
2018-02-05T00:40:10.881Z,1.61
2018-02-05T00:40:14.667Z,1.6
2018-02-05T00:40:18.672Z,1.61
2018-02-05T00:40:22.569Z,1.56
2018-02-05T00:40:26.566Z,1.56
2018-02-05T00:40:30.354Z,1.63
2018-02-05T00:40:34.144Z,1.61
2018-02-05T00:40:38.144Z,1.61
2018-02-05T00:40:42.142Z,1.57
2018-02-05T00:40:46.034Z,1.61
2018-02-05T00:40:49.826Z,1.67
2018-02-05T00:40:53.930Z,1.6
2018-02-05T00:40:58.137Z,1.65
2018-02-05T00:41:02.028Z,1.63
2018-02-05T00:41:06.035Z,1.68
2018-02-05T00:41:10.035Z,1.6
2018-02-05T00:41:13.828Z,1.6
2018-02-05T00:41:17.724Z,1.61
2018-02-05T00:41:21.617Z,1.61
2018-02-05T00:41:25.399Z,1.63
2018-02-05T00:41:29.186Z,1.67
2018-02-05T00:41:33.189Z,1.6
2018-02-05T00:41:37.191Z,1.57
2018-02-05T00:41:41.190Z,1.63
2018-02-05T00:41:45.193Z,1.64
2018-02-05T00:41:48.981Z,1.57
2018-02-05T00:41:52.878Z,1.6
2018-02-05T00:41:56.982Z,1.63
2018-02-05T00:42:00.978Z,1.6
2018-02-05T00:42:05.074Z,1.64
2018-02-05T00:42:09.189Z,1.63
2018-02-05T00:42:13.292Z,1.57
2018-02-05T00:42:17.188Z,1.6
2018-02-05T00:42:20.877Z,1.56
2018-02-05T00:42:24.777Z,1.6
2018-02-05T00:42:28.568Z,1.65
2018-02-05T00:42:32.464Z,1.56
2018-02-05T00:42:36.358Z,1.67
2018-02-05T00:42:40.351Z,1.57
2018-02-05T00:42:44.140Z,1.63
2018-02-05T00:42:47.927Z,1.67
2018-02-05T00:42:51.716Z,1.57
2018-02-05T00:42:55.609Z,1.61
2018-02-05T00:42:59.575Z,1.68
2018-02-05T00:43:03.568Z,1.64
2018-02-05T00:43:07.674Z,1.67
2018-02-05T00:43:11.572Z,1.63
2018-02-05T00:43:15.459Z,1.63
2018-02-05T00:43:19.350Z,1.6
2018-02-05T00:43:23.247Z,1.67
2018-02-05T00:43:27.139Z,1.64
2018-02-05T00:43:30.930Z,1.64
2018-02-05T00:43:34.717Z,1.63
2018-02-05T00:43:38.506Z,1.67
2018-02-05T00:43:42.403Z,1.6
2018-02-05T00:43:46.413Z,1.64
2018-02-05T00:43:50.307Z,1.67
2018-02-05T00:43:54.406Z,1.63
2018-02-05T00:43:58.188Z,1.67
2018-02-05T00:44:02.286Z,1.65
2018-02-05T00:44:06.285Z,1.68
2018-02-05T00:44:10.186Z,1.67
2018-02-05T00:44:14.193Z,1.6
2018-02-05T00:44:17.879Z,1.64
2018-02-05T00:44:21.769Z,1.68
2018-02-05T00:44:25.558Z,1.63
2018-02-05T00:44:29.403Z,1.6
2018-02-05T00:44:33.346Z,1.64
2018-02-05T00:44:37.247Z,1.63
2018-02-05T00:44:41.348Z,1.56
2018-02-05T00:44:45.349Z,1.65
2018-02-05T00:44:49.459Z,1.61
2018-02-05T00:44:53.354Z,1.65
2018-02-05T00:44:57.151Z,1.57
2018-02-05T00:45:01.150Z,1.57
2018-02-05T00:45:05.348Z,1.65
2018-02-05T00:45:09.452Z,1.6
2018-02-05T00:45:13.137Z,1.64
2018-02-05T00:45:17.046Z,1.65
2018-02-05T00:45:20.834Z,1.67
2018-02-05T00:45:24.721Z,1.64
2018-02-05T00:45:28.506Z,1.63
2018-02-05T00:45:32.777Z,1.6
2018-02-05T00:45:36.572Z,1.61
2018-02-05T00:45:40.572Z,1.57
2018-02-05T00:45:44.572Z,1.57
2018-02-05T00:45:48.474Z,1.6
2018-02-05T00:45:52.265Z,1.61
2018-02-05T00:45:56.056Z,1.6
2018-02-05T00:46:00.059Z,1.6
2018-02-05T00:46:04.145Z,1.57
2018-02-05T00:46:07.825Z,1.57
2018-02-05T00:46:11.825Z,1.64
2018-02-05T00:46:15.926Z,1.6
2018-02-05T00:46:19.824Z,1.63
2018-02-05T00:46:23.619Z,1.6
2018-02-05T00:46:27.668Z,1.63
2018-02-05T00:46:31.461Z,1.61
2018-02-05T00:46:35.488Z,1.6
2018-02-05T00:46:39.283Z,1.63
2018-02-05T00:46:43.067Z,1.57
2018-02-05T00:46:46.959Z,1.53
2018-02-05T00:46:51.054Z,1.57
2018-02-05T00:46:55.057Z,1.6
2018-02-05T00:46:58.949Z,1.57
2018-02-05T00:47:03.371Z,1.6
2018-02-05T00:47:07.163Z,1.63
2018-02-05T00:47:11.167Z,1.63
2018-02-05T00:47:14.950Z,1.61
2018-02-05T00:47:18.636Z,1.6
2018-02-05T00:47:22.530Z,1.63
2018-02-05T00:47:26.531Z,1.54
2018-02-05T00:47:30.313Z,1.61
2018-02-05T00:47:34.217Z,1.6
2018-02-05T00:47:38.008Z,1.56
2018-02-05T00:47:42.112Z,1.56
2018-02-05T00:47:45.793Z,1.6
2018-02-05T00:47:49.479Z,1.54
2018-02-05T00:47:53.374Z,1.57
2018-02-05T00:47:57.373Z,1.57
2018-02-05T00:48:01.160Z,1.54
2018-02-05T00:48:05.051Z,1.56
2018-02-05T00:48:09.052Z,1.63
2018-02-05T00:48:13.257Z,1.54
2018-02-05T00:48:17.151Z,1.61
2018-02-05T00:48:21.043Z,1.57
2018-02-05T00:48:25.048Z,1.57
2018-02-05T00:48:28.939Z,1.54
2018-02-05T00:48:32.729Z,1.6
2018-02-05T00:48:36.617Z,1.56
2018-02-05T00:48:40.299Z,1.54
2018-02-05T00:48:44.096Z,1.6
2018-02-05T00:48:48.093Z,1.5
2018-02-05T00:48:52.088Z,1.54
2018-02-05T00:48:56.087Z,1.6
2018-02-05T00:49:00.088Z,1.53
2018-02-05T00:49:03.876Z,1.53
2018-02-05T00:49:07.555Z,1.54
2018-02-05T00:49:11.555Z,1.56
2018-02-05T00:49:15.450Z,1.57
2018-02-05T00:49:19.346Z,1.57
2018-02-05T00:49:23.346Z,1.56
2018-02-05T00:49:27.028Z,1.57
2018-02-05T00:49:30.922Z,1.6
2018-02-05T00:49:34.712Z,1.53
2018-02-05T00:49:38.708Z,1.54
2018-02-05T00:49:42.710Z,1.6
2018-02-05T00:49:46.393Z,1.52
2018-02-05T00:49:50.395Z,1.53
2018-02-05T00:49:54.291Z,1.5
2018-02-05T00:49:57.977Z,1.56
2018-02-05T00:50:02.241Z,1.53
2018-02-05T00:50:06.301Z,1.57
2018-02-05T00:50:10.195Z,1.53
2018-02-05T00:50:14.189Z,1.6
2018-02-05T00:50:18.194Z,1.56
2018-02-05T00:50:22.092Z,1.57
2018-02-05T00:50:26.086Z,1.54
2018-02-05T00:50:30.214Z,1.52
2018-02-05T00:50:34.206Z,1.56
2018-02-05T00:50:38.412Z,1.56
2018-02-05T00:50:42.408Z,1.52
2018-02-05T00:50:46.365Z,1.57
2018-02-05T00:50:50.156Z,1.53
2018-02-05T00:50:54.054Z,1.56
2018-02-05T00:50:57.840Z,1.49
2018-02-05T00:51:01.732Z,1.47
2018-02-05T00:51:05.764Z,1.52
2018-02-05T00:51:09.547Z,1.6
2018-02-05T00:51:13.338Z,1.54
2018-02-05T00:51:17.336Z,1.5
2018-02-05T00:51:21.439Z,1.5
2018-02-05T00:51:25.438Z,1.57
2018-02-05T00:51:29.325Z,1.53
2018-02-05T00:51:33.007Z,1.54
2018-02-05T00:51:36.799Z,1.47
2018-02-05T00:51:40.584Z,1.56
2018-02-05T00:51:44.271Z,1.6
2018-02-05T00:51:48.166Z,1.5
2018-02-05T00:51:52.167Z,1.5
2018-02-05T00:51:55.958Z,1.52
2018-02-05T00:51:59.858Z,1.47
2018-02-05T00:52:04.103Z,1.54
2018-02-05T00:52:08.102Z,1.52
2018-02-05T00:52:11.992Z,1.52
2018-02-05T00:52:15.884Z,1.57
2018-02-05T00:52:19.779Z,1.61
2018-02-05T00:52:23.678Z,1.54
2018-02-05T00:52:27.364Z,1.53
2018-02-05T00:52:31.157Z,1.52
2018-02-05T00:52:35.152Z,1.57
2018-02-05T00:52:39.049Z,1.49